Current Conditions
Clear
Conditions



Pressure
30.11 (inHG) - 1019.62 (mb)
Visibility

10.0 (mimiles) - 16.1 (km)
   Temperature
61  °F
16°C
55  °F
Dewpoint
83  %
 Humidity
   Wind Speed
0  mph
0  kts
0  km/h
0  m/s
   Wind Direction
Calm
Due North
   Airport Data
KLRF
Location Little Rock AFB 20 mi (32.18 km)
Metar :KLRF 240756Z AUTO 00000KT 10SM CLR 16/13 A3011 RMK AO2 SLP197 T01570134 $
Wed 24th July 02:56 am
   Raw Metar Info
Raw METAR is the most common format in the world for the transmission of observational weather data. It is highly standardized through the International Civil Aviation Organization (ICAO), which allows it to be understood throughout most of the world.
   API Info
Data Provided by
https://www.checkwx.com/weather/KLRF
   © Info
CSS/SVG/PHP scripts were developed by weather34.com for use in the weather34 template © 2015-2019

Guide Info provided by Metar-Wikipedia